createdAt,value
2023-02-28T00:01:37.108Z,0.73
2023-02-28T00:04:05.924Z,0.71
2023-02-28T00:06:33.907Z,0.70
2023-02-28T00:09:04.932Z,0.70
2023-02-28T00:11:39.042Z,0.68
2023-02-28T00:14:07.171Z,0.65
2023-02-28T00:16:35.793Z,0.64
2023-02-28T00:19:07.621Z,0.63
2023-02-28T00:21:36.723Z,0.61
2023-02-28T00:24:04.863Z,0.60
2023-02-28T00:26:33.978Z,0.60
2023-02-28T00:29:02.063Z,0.60
2023-02-28T00:31:30.379Z,0.59
2023-02-28T00:33:59.370Z,0.58
2023-02-28T00:36:34.994Z,0.59
2023-02-28T00:39:06.520Z,0.60
2023-02-28T00:41:34.607Z,0.61
2023-02-28T00:44:02.684Z,0.62
2023-02-28T00:46:31.189Z,0.64
2023-02-28T00:48:59.969Z,0.65
2023-02-28T00:51:29.022Z,0.67
2023-02-28T00:54:01.014Z,0.67
2023-02-28T00:56:29.455Z,0.65
2023-02-28T00:58:57.649Z,0.64
2023-02-28T01:01:26.020Z,0.63
2023-02-28T01:03:54.272Z,0.61
2023-02-28T01:06:22.451Z,0.58
2023-02-28T01:08:50.615Z,0.56
2023-02-28T01:11:22.518Z,0.54
2023-02-28T01:13:51.481Z,0.53
2023-02-28T01:16:19.590Z,0.52
2023-02-28T01:18:48.171Z,0.49
2023-02-28T01:21:18.106Z,0.47
2023-02-28T01:23:47.577Z,0.44
2023-02-28T01:26:17.752Z,0.40
2023-02-28T01:28:46.606Z,0.36
2023-02-28T01:31:14.993Z,0.28
2023-02-28T01:33:43.210Z,0.19
2023-02-28T01:36:16.628Z,0.11
2023-02-28T01:38:45.108Z,0.03
2023-02-28T01:41:25.214Z,-0.08
2023-02-28T01:44:04.409Z,-0.17
2023-02-28T01:46:33.963Z,-0.24
2023-02-28T01:49:14.226Z,-0.30
2023-02-28T01:51:51.878Z,-0.34
2023-02-28T01:54:27.365Z,-0.38
2023-02-28T01:57:08.936Z,-0.41
2023-02-28T01:59:59.656Z,-0.46
2023-02-28T02:02:28.869Z,-0.47
2023-02-28T02:05:05.282Z,-0.46
2023-02-28T02:07:37.848Z,-0.45
2023-02-28T02:10:17.709Z,-0.42
2023-02-28T02:12:58.286Z,-0.38
2023-02-28T02:15:52.912Z,-0.35
2023-02-28T02:18:27.461Z,-0.34
2023-02-28T02:21:24.057Z,-0.31
2023-02-28T02:24:23.018Z,-0.29
2023-02-28T02:26:56.843Z,-0.29
2023-02-28T02:29:43.538Z,-0.30
2023-02-28T02:32:17.340Z,-0.32
2023-02-28T02:34:48.705Z,-0.33
2023-02-28T02:37:32.445Z,-0.33
2023-02-28T02:40:06.054Z,-0.34
2023-02-28T02:43:09.042Z,-0.34
2023-02-28T02:45:41.361Z,-0.34
2023-02-28T02:48:11.432Z,-0.33
2023-02-28T02:50:41.733Z,-0.34
2023-02-28T02:53:10.038Z,-0.36
2023-02-28T02:55:41.897Z,-0.37
2023-02-28T02:58:12.661Z,-0.37
2023-02-28T03:00:43.502Z,-0.39
2023-02-28T03:03:13.390Z,-0.43
2023-02-28T03:05:51.280Z,-0.44
2023-02-28T03:08:20.963Z,-0.45
2023-02-28T03:10:50.840Z,-0.46
2023-02-28T03:13:46.837Z,-0.47
2023-02-28T03:16:23.039Z,-0.47
2023-02-28T03:19:18.924Z,-0.48
2023-02-28T03:22:02.518Z,-0.48
2023-02-28T03:24:47.527Z,-0.48
2023-02-28T03:27:22.795Z,-0.50
2023-02-28T03:30:01.594Z,-0.53
2023-02-28T03:32:34.837Z,-0.55
2023-02-28T03:35:07.179Z,-0.59
2023-02-28T03:37:37.497Z,-0.64
2023-02-28T03:40:09.819Z,-0.67
2023-02-28T03:42:38.281Z,-0.68
2023-02-28T03:45:21.024Z,-0.69
2023-02-28T03:47:54.432Z,-0.71
2023-02-28T03:50:27.366Z,-0.69
2023-02-28T03:53:02.453Z,-0.67
2023-02-28T03:55:33.721Z,-0.65
2023-02-28T03:58:07.460Z,-0.66
2023-02-28T04:00:39.295Z,-0.70
2023-02-28T04:03:07.872Z,-0.72
2023-02-28T04:05:55.403Z,-0.69
2023-02-28T04:08:23.674Z,-0.67
2023-02-28T04:11:03.230Z,-0.66
2023-02-28T04:13:35.224Z,-0.66
2023-02-28T04:16:18.683Z,-0.69
2023-02-28T04:18:50.165Z,-0.69
2023-02-28T04:21:21.810Z,-0.68
2023-02-28T04:23:50.144Z,-0.68
2023-02-28T04:26:24.031Z,-0.69
2023-02-28T04:28:53.208Z,-0.70
2023-02-28T04:31:21.671Z,-0.71
2023-02-28T04:33:50.785Z,-0.71
2023-02-28T04:36:19.163Z,-0.72
2023-02-28T04:38:48.487Z,-0.72
2023-02-28T04:41:17.150Z,-0.72
2023-02-28T04:43:45.243Z,-0.73
2023-02-28T04:46:13.514Z,-0.73
2023-02-28T04:48:41.820Z,-0.70
2023-02-28T04:51:14.568Z,-0.67
2023-02-28T04:53:44.985Z,-0.66
2023-02-28T04:56:14.695Z,-0.67
2023-02-28T04:58:42.762Z,-0.67
2023-02-28T05:01:30.879Z,-0.66
2023-02-28T05:04:00.215Z,-0.66
2023-02-28T05:06:32.893Z,-0.68
2023-02-28T05:09:01.282Z,-0.70
2023-02-28T05:11:36.397Z,-0.73
2023-02-28T05:14:14.107Z,-0.75
2023-02-28T05:16:42.407Z,-0.74
2023-02-28T05:19:11.450Z,-0.75
2023-02-28T05:21:58.721Z,-0.80
2023-02-28T05:24:27.293Z,-0.82
2023-02-28T05:26:55.634Z,-0.81
2023-02-28T05:29:24.045Z,-0.84
2023-02-28T05:31:52.217Z,-0.87
2023-02-28T05:34:20.319Z,-0.90
2023-02-28T05:36:48.452Z,-0.93
2023-02-28T05:39:16.427Z,-0.95
2023-02-28T05:41:45.966Z,-0.98
2023-02-28T05:44:14.201Z,-1.02
2023-02-28T05:46:45.097Z,-1.05
2023-02-28T05:49:13.949Z,-1.06
2023-02-28T05:51:42.489Z,-1.08
2023-02-28T05:54:12.881Z,-1.12
2023-02-28T05:56:45.244Z,-1.14
2023-02-28T05:59:14.260Z,-1.14
2023-02-28T06:01:49.125Z,-1.12
2023-02-28T06:04:31.087Z,-1.08
2023-02-28T06:07:00.299Z,-1.03
2023-02-28T06:09:32.361Z,-1.01
2023-02-28T06:12:01.375Z,-1.00
2023-02-28T06:14:29.795Z,-1.00
2023-02-28T06:17:03.990Z,-0.99
2023-02-28T06:19:33.214Z,-0.95
2023-02-28T06:22:01.297Z,-0.92
2023-02-28T06:24:31.517Z,-0.87
2023-02-28T06:27:06.446Z,-0.82
2023-02-28T06:29:36.043Z,-0.78
2023-02-28T06:32:04.243Z,-0.77
2023-02-28T06:34:35.039Z,-0.76
2023-02-28T06:37:03.549Z,-0.77
2023-02-28T06:39:40.199Z,-0.79
2023-02-28T06:42:09.106Z,-0.78
2023-02-28T06:44:37.513Z,-0.74
2023-02-28T06:47:06.384Z,-0.67
2023-02-28T06:49:37.626Z,-0.63
2023-02-28T06:52:06.534Z,-0.58
2023-02-28T06:54:34.591Z,-0.49
2023-02-28T06:57:03.866Z,-0.43
2023-02-28T06:59:32.594Z,-0.42
2023-02-28T07:02:04.069Z,-0.39
2023-02-28T07:04:32.598Z,-0.33
2023-02-28T07:07:00.792Z,-0.27
2023-02-28T07:09:31.264Z,-0.11
2023-02-28T07:12:00.241Z,0.09
2023-02-28T07:14:28.591Z,0.26
2023-02-28T07:16:57.130Z,0.36
2023-02-28T07:19:26.314Z,0.40
2023-02-28T07:21:54.638Z,0.36
2023-02-28T07:24:25.414Z,0.34
2023-02-28T07:26:53.829Z,0.34
2023-02-28T07:29:22.340Z,0.28
2023-02-28T07:31:54.483Z,0.21
2023-02-28T07:34:23.286Z,0.16
2023-02-28T07:36:54.967Z,0.16
2023-02-28T07:39:23.652Z,0.16
2023-02-28T07:41:51.925Z,0.20
2023-02-28T07:44:20.297Z,0.31
2023-02-28T07:46:48.729Z,0.51
2023-02-28T07:49:17.063Z,0.75
2023-02-28T07:51:45.363Z,1.00
2023-02-28T07:54:13.717Z,1.12
2023-02-28T07:56:42.198Z,1.14
2023-02-28T07:59:10.442Z,1.19
2023-02-28T08:01:39.360Z,1.29
2023-02-28T08:04:07.543Z,1.44
2023-02-28T08:06:36.382Z,1.50
2023-02-28T08:09:04.922Z,1.56
2023-02-28T08:11:33.403Z,1.54
2023-02-28T08:14:01.740Z,1.51
2023-02-28T08:16:33.455Z,1.47
2023-02-28T08:19:01.833Z,1.43
2023-02-28T08:21:30.470Z,1.45
2023-02-28T08:23:58.984Z,1.42
2023-02-28T08:26:27.558Z,1.35
2023-02-28T08:29:00.376Z,1.31
2023-02-28T08:31:30.152Z,1.31
2023-02-28T08:34:00.411Z,1.26
2023-02-28T08:36:30.001Z,1.19
2023-02-28T08:38:59.107Z,1.10
2023-02-28T08:41:27.589Z,1.05
2023-02-28T08:43:56.585Z,0.99
2023-02-28T08:46:24.756Z,0.96
2023-02-28T08:48:54.827Z,0.95
2023-02-28T08:51:28.495Z,0.98
2023-02-28T08:54:01.768Z,1.01
2023-02-28T08:56:33.975Z,0.99
2023-02-28T08:59:02.030Z,0.96
2023-02-28T09:01:31.002Z,0.93
2023-02-28T09:04:00.501Z,0.90
2023-02-28T09:06:29.449Z,0.85
2023-02-28T09:09:02.423Z,0.83
2023-02-28T09:11:30.456Z,0.84
2023-02-28T09:14:00.240Z,0.81
2023-02-28T09:16:28.777Z,0.74
2023-02-28T09:18:57.973Z,0.70
2023-02-28T09:21:26.207Z,0.71
2023-02-28T09:23:54.486Z,0.74
2023-02-28T09:26:28.142Z,0.76
2023-02-28T09:29:01.590Z,0.74
2023-02-28T09:31:29.870Z,0.76
2023-02-28T09:33:58.252Z,0.77
2023-02-28T09:36:38.071Z,0.77
2023-02-28T09:39:13.904Z,0.80
2023-02-28T09:41:52.091Z,0.79
2023-02-28T09:44:33.326Z,0.73
2023-02-28T09:47:32.287Z,0.69
2023-02-28T09:50:22.353Z,0.62
2023-02-28T09:52:51.167Z,0.57
2023-02-28T09:55:35.268Z,0.54
2023-02-28T09:58:32.365Z,0.48
2023-02-28T10:01:23.906Z,0.49
2023-02-28T10:04:12.580Z,0.48
2023-02-28T10:06:47.238Z,0.51
2023-02-28T10:09:32.248Z,0.52
2023-02-28T10:12:06.304Z,0.51
2023-02-28T10:14:35.244Z,0.52
2023-02-28T10:17:17.027Z,0.58
2023-02-28T10:20:14.684Z,0.63
2023-02-28T10:22:46.513Z,0.67
2023-02-28T10:25:23.246Z,0.71
2023-02-28T10:27:55.419Z,0.74
2023-02-28T10:30:24.178Z,0.72
2023-02-28T10:32:54.823Z,0.72
2023-02-28T10:35:25.628Z,0.73
2023-02-28T10:37:58.300Z,0.73
2023-02-28T10:40:27.960Z,0.70
2023-02-28T10:42:57.137Z,0.66
2023-02-28T10:45:26.992Z,0.64
2023-02-28T10:48:03.907Z,0.64
2023-02-28T10:50:46.314Z,0.63
2023-02-28T10:53:27.416Z,0.64
2023-02-28T10:56:09.787Z,0.66
2023-02-28T10:58:57.703Z,0.63
2023-02-28T11:01:33.486Z,0.59
2023-02-28T11:04:02.410Z,0.58
2023-02-28T11:06:36.008Z,0.64
2023-02-28T11:09:26.623Z,0.69
2023-02-28T11:11:57.081Z,0.75
2023-02-28T11:14:26.755Z,0.77
2023-02-28T11:16:54.912Z,0.74
2023-02-28T11:19:28.856Z,0.70
2023-02-28T11:21:59.462Z,0.65
2023-02-28T11:24:47.466Z,0.60
2023-02-28T11:27:48.239Z,0.56
2023-02-28T11:30:35.469Z,0.53
2023-02-28T11:33:29.993Z,0.53
2023-02-28T11:36:05.294Z,0.53
2023-02-28T11:38:35.384Z,0.52
2023-02-28T11:41:32.304Z,0.54
2023-02-28T11:44:37.849Z,0.55
2023-02-28T11:47:29.030Z,0.56
2023-02-28T11:50:12.167Z,0.54
2023-02-28T11:52:57.032Z,0.49
2023-02-28T11:55:46.925Z,0.47
2023-02-28T11:58:22.227Z,0.51
2023-02-28T12:01:07.133Z,0.55
2023-02-28T12:03:36.252Z,0.55
2023-02-28T12:06:24.598Z,0.53
2023-02-28T12:09:13.277Z,0.55
2023-02-28T12:11:55.699Z,0.56
2023-02-28T12:14:29.749Z,0.58
2023-02-28T12:17:02.300Z,0.56
2023-02-28T12:19:33.425Z,0.51
2023-02-28T12:22:27.709Z,0.44
2023-02-28T12:25:08.423Z,0.43
2023-02-28T12:27:41.454Z,0.44
2023-02-28T12:30:31.448Z,0.44
2023-02-28T12:33:10.726Z,0.41
2023-02-28T12:35:48.904Z,0.34
2023-02-28T12:38:20.735Z,0.31
2023-02-28T12:41:02.550Z,0.27
2023-02-28T12:43:38.596Z,0.26
2023-02-28T12:46:20.494Z,0.23
2023-02-28T12:48:52.104Z,0.18
2023-02-28T12:51:20.656Z,0.13
2023-02-28T12:54:04.994Z,0.12
2023-02-28T12:56:43.620Z,0.11
2023-02-28T12:59:20.823Z,0.13
2023-02-28T13:02:03.431Z,0.15
2023-02-28T13:04:54.841Z,0.17
2023-02-28T13:07:24.015Z,0.17
2023-02-28T13:09:57.232Z,0.16
2023-02-28T13:12:27.918Z,0.15
2023-02-28T13:15:16.971Z,0.14
2023-02-28T13:17:45.500Z,0.13
2023-02-28T13:20:20.521Z,0.11
2023-02-28T13:22:50.590Z,0.10
2023-02-28T13:25:34.143Z,0.08
2023-02-28T13:28:05.416Z,0.07
2023-02-28T13:30:56.832Z,0.08
2023-02-28T13:33:29.292Z,0.07
2023-02-28T13:36:19.135Z,0.07
2023-02-28T13:38:49.041Z,0.04
2023-02-28T13:41:32.819Z,-0.02
2023-02-28T13:44:13.687Z,-0.05
2023-02-28T13:46:49.653Z,-0.08
2023-02-28T13:49:26.073Z,-0.07
2023-02-28T13:52:03.579Z,-0.09
2023-02-28T13:55:10.061Z,-0.15
2023-02-28T13:58:10.474Z,-0.20
2023-02-28T14:00:57.486Z,-0.21
2023-02-28T14:03:59.097Z,-0.22
2023-02-28T14:06:32.251Z,-0.26
2023-02-28T14:09:04.037Z,-0.30
2023-02-28T14:11:37.706Z,-0.31
2023-02-28T14:14:06.912Z,-0.32
2023-02-28T14:16:48.116Z,-0.29
2023-02-28T14:19:26.379Z,-0.27
2023-02-28T14:22:16.808Z,-0.24
2023-02-28T14:25:05.436Z,-0.24
2023-02-28T14:27:51.437Z,-0.27
2023-02-28T14:30:51.997Z,-0.31
2023-02-28T14:33:31.338Z,-0.36
2023-02-28T14:36:11.826Z,-0.39
2023-02-28T14:38:53.249Z,-0.40
2023-02-28T14:41:24.436Z,-0.40
2023-02-28T14:43:53.804Z,-0.38
2023-02-28T14:46:22.582Z,-0.40
2023-02-28T14:48:50.964Z,-0.42
2023-02-28T14:51:21.182Z,-0.42
2023-02-28T14:53:53.832Z,-0.42
2023-02-28T14:56:34.240Z,-0.45
2023-02-28T14:59:02.606Z,-0.49
2023-02-28T15:01:33.031Z,-0.51
2023-02-28T15:04:07.999Z,-0.54
2023-02-28T15:06:36.486Z,-0.59
2023-02-28T15:09:22.816Z,-0.63
2023-02-28T15:11:50.958Z,-0.67
2023-02-28T15:14:21.587Z,-0.69
2023-02-28T15:16:58.220Z,-0.71
2023-02-28T15:19:28.790Z,-0.69
2023-02-28T15:22:02.387Z,-0.66
2023-02-28T15:24:38.513Z,-0.62
2023-02-28T15:27:08.960Z,-0.58
2023-02-28T15:29:51.966Z,-0.55
2023-02-28T15:32:29.880Z,-0.50
2023-02-28T15:34:59.082Z,-0.48
2023-02-28T15:37:31.833Z,-0.52
2023-02-28T15:40:11.313Z,-0.56
2023-02-28T15:42:40.395Z,-0.58
2023-02-28T15:45:28.229Z,-0.59
2023-02-28T15:47:59.928Z,-0.60
2023-02-28T15:50:32.135Z,-0.60
2023-02-28T15:53:00.233Z,-0.60
2023-02-28T15:55:43.876Z,-0.61
2023-02-28T15:58:14.147Z,-0.62
2023-02-28T16:00:46.526Z,-0.65
2023-02-28T16:03:44.847Z,-0.68
2023-02-28T16:06:45.587Z,-0.75
2023-02-28T16:09:17.326Z,-0.83
2023-02-28T16:11:50.960Z,-0.87
2023-02-28T16:14:24.233Z,-0.90
2023-02-28T16:16:54.389Z,-0.93
2023-02-28T16:19:23.146Z,-0.97
2023-02-28T16:21:52.333Z,-0.99
2023-02-28T16:24:20.685Z,-1.00
2023-02-28T16:26:50.229Z,-0.99
2023-02-28T16:29:38.887Z,-0.99
2023-02-28T16:32:07.487Z,-0.97
2023-02-28T16:34:37.325Z,-0.97
2023-02-28T16:37:11.196Z,-0.99
2023-02-28T16:39:39.459Z,-0.99
2023-02-28T16:42:11.939Z,-0.98
2023-02-28T16:44:40.838Z,-0.95
2023-02-28T16:47:10.108Z,-0.91
2023-02-28T16:49:38.614Z,-0.84
2023-02-28T16:52:07.110Z,-0.80
2023-02-28T16:54:35.476Z,-0.77
2023-02-28T16:57:04.571Z,-0.75
2023-02-28T16:59:33.306Z,-0.76
2023-02-28T17:02:04.998Z,-0.75
2023-02-28T17:04:33.872Z,-0.75
2023-02-28T17:07:01.803Z,-0.73
2023-02-28T17:09:40.242Z,-0.74
2023-02-28T17:12:15.976Z,-0.77
2023-02-28T17:14:45.095Z,-0.80
2023-02-28T17:17:18.820Z,-0.83
2023-02-28T17:19:47.588Z,-0.85
2023-02-28T17:22:16.102Z,-0.88
2023-02-28T17:24:44.349Z,-0.91
2023-02-28T17:27:14.105Z,-0.94
2023-02-28T17:29:42.851Z,-0.96
2023-02-28T17:32:18.231Z,-0.98
2023-02-28T17:34:47.341Z,-1.00
2023-02-28T17:37:17.316Z,-1.05
2023-02-28T17:39:45.385Z,-1.06
2023-02-28T17:42:17.120Z,-1.07
2023-02-28T17:44:45.118Z,-1.06
2023-02-28T17:47:13.972Z,-1.05
2023-02-28T17:49:42.905Z,-1.03
2023-02-28T17:52:11.219Z,-1.03
2023-02-28T17:54:40.922Z,-1.04
2023-02-28T17:57:14.351Z,-1.06
2023-02-28T17:59:43.301Z,-1.06
2023-02-28T18:02:13.208Z,-1.02
2023-02-28T18:04:41.336Z,-1.00
2023-02-28T18:07:10.808Z,-1.01
2023-02-28T18:09:39.194Z,-1.04
2023-02-28T18:12:07.984Z,-1.07
2023-02-28T18:14:36.568Z,-1.07
2023-02-28T18:17:04.868Z,-1.07
2023-02-28T18:19:33.934Z,-1.08
2023-02-28T18:22:02.317Z,-1.11
2023-02-28T18:24:30.495Z,-1.17
2023-02-28T18:26:59.893Z,-1.24
2023-02-28T18:29:28.144Z,-1.28
2023-02-28T18:31:57.121Z,-1.30
2023-02-28T18:34:25.764Z,-1.32
2023-02-28T18:36:54.434Z,-1.34
2023-02-28T18:39:22.729Z,-1.35
2023-02-28T18:41:51.720Z,-1.33
2023-02-28T18:44:21.534Z,-1.32
2023-02-28T18:46:50.599Z,-1.29
2023-02-28T18:49:18.997Z,-1.28
2023-02-28T18:51:47.306Z,-1.29
2023-02-28T18:54:16.339Z,-1.29
2023-02-28T18:56:44.577Z,-1.29
2023-02-28T18:59:12.879Z,-1.30
2023-02-28T19:01:41.141Z,-1.31
2023-02-28T19:04:12.519Z,-1.35
2023-02-28T19:06:42.556Z,-1.40
2023-02-28T19:09:11.144Z,-1.43
2023-02-28T19:11:39.538Z,-1.46
2023-02-28T19:14:09.750Z,-1.47
2023-02-28T19:16:39.821Z,-1.48
2023-02-28T19:19:08.022Z,-1.53
2023-02-28T19:21:36.918Z,-1.60
2023-02-28T19:24:05.928Z,-1.64
2023-02-28T19:26:37.835Z,-1.68
2023-02-28T19:29:07.063Z,-1.71
2023-02-28T19:31:35.281Z,-1.70
2023-02-28T19:34:03.958Z,-1.72
2023-02-28T19:36:33.656Z,-1.75
2023-02-28T19:39:01.851Z,-1.79
2023-02-28T19:41:30.694Z,-1.82
2023-02-28T19:43:59.511Z,-1.84
2023-02-28T19:46:29.729Z,-1.85
2023-02-28T19:48:58.017Z,-1.88
2023-02-28T19:51:27.965Z,-1.92
2023-02-28T19:53:56.832Z,-1.95
2023-02-28T19:56:26.330Z,-2.00
2023-02-28T19:58:54.378Z,-2.03
2023-02-28T20:01:22.882Z,-2.05
2023-02-28T20:03:51.239Z,-2.08
2023-02-28T20:06:19.331Z,-2.10
2023-02-28T20:08:48.082Z,-2.13
2023-02-28T20:11:16.817Z,-2.17
2023-02-28T20:13:45.045Z,-2.20
2023-02-28T20:16:13.912Z,-2.24
2023-02-28T20:18:44.404Z,-2.28
2023-02-28T20:21:13.206Z,-2.30
2023-02-28T20:23:46.181Z,-2.31
2023-02-28T20:26:14.970Z,-2.32
2023-02-28T20:28:43.662Z,-2.33
2023-02-28T20:31:19.702Z,-2.35
2023-02-28T20:33:48.610Z,-2.38
2023-02-28T20:36:19.802Z,-2.41
2023-02-28T20:38:48.657Z,-2.43
2023-02-28T20:41:16.903Z,-2.45
2023-02-28T20:43:49.194Z,-2.48
2023-02-28T20:46:20.125Z,-2.51
2023-02-28T20:48:48.590Z,-2.53
2023-02-28T20:51:17.216Z,-2.55
2023-02-28T20:53:45.989Z,-2.58
2023-02-28T20:56:18.696Z,-2.61
2023-02-28T20:58:48.701Z,-2.66
2023-02-28T21:01:18.957Z,-2.69
2023-02-28T21:03:50.785Z,-2.72
2023-02-28T21:06:20.214Z,-2.75
2023-02-28T21:08:48.661Z,-2.76
2023-02-28T21:11:25.216Z,-2.77
2023-02-28T21:13:54.668Z,-2.76
2023-02-28T21:16:24.344Z,-2.77
2023-02-28T21:18:55.555Z,-2.77
2023-02-28T21:21:24.518Z,-2.78
2023-02-28T21:23:52.670Z,-2.79
2023-02-28T21:26:22.551Z,-2.80
2023-02-28T21:28:55.483Z,-2.80
2023-02-28T21:31:25.637Z,-2.82
2023-02-28T21:33:57.383Z,-2.84
2023-02-28T21:36:32.880Z,-2.86
2023-02-28T21:39:04.994Z,-2.86
2023-02-28T21:41:34.368Z,-2.87
2023-02-28T21:44:02.626Z,-2.88
2023-02-28T21:46:34.406Z,-2.90
2023-02-28T21:49:03.303Z,-2.91
2023-02-28T21:51:32.073Z,-2.93
2023-02-28T21:54:00.511Z,-2.96
2023-02-28T21:56:30.993Z,-2.98
2023-02-28T21:59:02.427Z,-2.99
2023-02-28T22:01:34.902Z,-3.00
2023-02-28T22:04:04.948Z,-3.01
2023-02-28T22:06:40.166Z,-3.00
2023-02-28T22:09:14.078Z,-3.02
2023-02-28T22:11:42.812Z,-3.03
2023-02-28T22:14:12.740Z,-3.04
2023-02-28T22:16:51.663Z,-3.04
2023-02-28T22:19:21.226Z,-3.04
2023-02-28T22:21:50.438Z,-3.03
2023-02-28T22:24:20.940Z,-3.02
2023-02-28T22:26:50.726Z,-3.02
2023-02-28T22:29:19.133Z,-3.03
2023-02-28T22:31:47.600Z,-3.04
2023-02-28T22:34:20.186Z,-3.03
2023-02-28T22:36:48.386Z,-3.02
2023-02-28T22:39:16.466Z,-3.02
2023-02-28T22:41:44.851Z,-3.03
2023-02-28T22:44:23.190Z,-3.03
2023-02-28T22:46:54.109Z,-3.02
2023-02-28T22:49:22.449Z,-3.03
2023-02-28T22:51:52.512Z,-3.03
2023-02-28T22:54:21.584Z,-3.03
2023-02-28T22:56:50.135Z,-3.03
2023-02-28T22:59:19.230Z,-3.03
2023-02-28T23:01:47.945Z,-3.03
2023-02-28T23:04:16.297Z,-3.03
2023-02-28T23:06:44.889Z,-3.03
2023-02-28T23:09:21.757Z,-3.03
2023-02-28T23:11:50.869Z,-3.03
2023-02-28T23:14:20.137Z,-3.02
2023-02-28T23:16:51.841Z,-3.02
2023-02-28T23:19:26.551Z,-3.01
2023-02-28T23:21:54.894Z,-3.01
2023-02-28T23:24:24.413Z,-3.00
2023-02-28T23:26:55.195Z,-3.01
2023-02-28T23:29:23.870Z,-3.01
2023-02-28T23:31:52.467Z,-3.01
2023-02-28T23:34:30.830Z,-3.01
2023-02-28T23:37:01.651Z,-3.01
2023-02-28T23:39:30.677Z,-3.02
2023-02-28T23:41:59.773Z,-3.02
2023-02-28T23:44:28.094Z,-3.02
2023-02-28T23:46:56.315Z,-3.02
2023-02-28T23:49:24.744Z,-3.01
2023-02-28T23:51:54.434Z,-3.01
2023-02-28T23:54:24.611Z,-3.00
2023-02-28T23:56:53.327Z,-2.99
2023-02-28T23:59:21.707Z,-2.99
